sensor_id;sensor_type;location;lat;lon;timestamp;P1;durP1;ratioP1;P2;durP2;ratioP2
23800;SDS011;12081;48.614;10.226;2022-11-15T00:00:30;11.57;;;8.93;;
23800;SDS011;12081;48.614;10.226;2022-11-15T00:03:14;12.83;;;9.07;;
23800;SDS011;12081;48.614;10.226;2022-11-15T00:06:05;11.47;;;8.73;;
23800;SDS011;12081;48.614;10.226;2022-11-15T00:08:49;13.30;;;8.60;;
23800;SDS011;12081;48.614;10.226;2022-11-15T00:11:33;11.30;;;9.27;;
23800;SDS011;12081;48.614;10.226;2022-11-15T00:14:18;13.20;;;9.50;;
23800;SDS011;12081;48.614;10.226;2022-11-15T00:17:02;12.97;;;9.07;;
23800;SDS011;12081;48.614;10.226;2022-11-15T00:19:46;11.83;;;9.40;;
23800;SDS011;12081;48.614;10.226;2022-11-15T00:22:33;16.37;;;10.60;;
23800;SDS011;12081;48.614;10.226;2022-11-15T00:25:18;13.07;;;9.77;;
23800;SDS011;12081;48.614;10.226;2022-11-15T00:28:02;12.73;;;9.87;;
23800;SDS011;12081;48.614;10.226;2022-11-15T00:30:46;18.63;;;11.53;;
23800;SDS011;12081;48.614;10.226;2022-11-15T00:33:30;15.37;;;11.30;;
23800;SDS011;12081;48.614;10.226;2022-11-15T00:36:15;14.27;;;11.40;;
23800;SDS011;12081;48.614;10.226;2022-11-15T00:38:59;14.37;;;11.50;;
23800;SDS011;12081;48.614;10.226;2022-11-15T00:41:44;13.43;;;11.47;;
23800;SDS011;12081;48.614;10.226;2022-11-15T00:44:28;13.50;;;11.10;;
23800;SDS011;12081;48.614;10.226;2022-11-15T00:47:12;13.90;;;10.97;;
23800;SDS011;12081;48.614;10.226;2022-11-15T00:49:56;17.20;;;11.40;;
23800;SDS011;12081;48.614;10.226;2022-11-15T00:52:41;14.63;;;11.37;;
23800;SDS011;12081;48.614;10.226;2022-11-15T00:55:25;15.83;;;11.70;;
23800;SDS011;12081;48.614;10.226;2022-11-15T00:58:09;18.77;;;11.13;;
23800;SDS011;12081;48.614;10.226;2022-11-15T01:00:54;16.00;;;11.53;;
23800;SDS011;12081;48.614;10.226;2022-11-15T01:03:39;14.03;;;10.17;;
23800;SDS011;12081;48.614;10.226;2022-11-15T01:06:24;14.63;;;12.00;;
23800;SDS011;12081;48.614;10.226;2022-11-15T01:09:08;14.20;;;10.43;;
23800;SDS011;12081;48.614;10.226;2022-11-15T01:11:52;14.37;;;11.63;;
23800;SDS011;12081;48.614;10.226;2022-11-15T01:14:36;16.57;;;10.93;;
23800;SDS011;12081;48.614;10.226;2022-11-15T01:17:20;14.07;;;10.40;;
23800;SDS011;12081;48.614;10.226;2022-11-15T01:20:04;13.53;;;10.10;;
23800;SDS011;12081;48.614;10.226;2022-11-15T01:22:48;15.30;;;11.03;;
23800;SDS011;12081;48.614;10.226;2022-11-15T01:25:32;13.53;;;10.63;;
23800;SDS011;12081;48.614;10.226;2022-11-15T01:28:16;16.43;;;12.63;;
23800;SDS011;12081;48.614;10.226;2022-11-15T01:31:01;17.00;;;13.87;;
23800;SDS011;12081;48.614;10.226;2022-11-15T01:33:47;22.93;;;16.67;;
23800;SDS011;12081;48.614;10.226;2022-11-15T01:36:32;20.57;;;14.60;;
23800;SDS011;12081;48.614;10.226;2022-11-15T01:39:16;21.13;;;14.40;;
23800;SDS011;12081;48.614;10.226;2022-11-15T01:42:00;19.90;;;15.07;;
23800;SDS011;12081;48.614;10.226;2022-11-15T01:44:49;19.83;;;14.10;;
23800;SDS011;12081;48.614;10.226;2022-11-15T01:47:35;21.07;;;13.83;;
23800;SDS011;12081;48.614;10.226;2022-11-15T01:50:25;20.00;;;13.20;;
23800;SDS011;12081;48.614;10.226;2022-11-15T01:53:12;19.63;;;13.90;;
23800;SDS011;12081;48.614;10.226;2022-11-15T01:55:57;18.57;;;13.53;;
23800;SDS011;12081;48.614;10.226;2022-11-15T01:58:42;18.33;;;13.03;;
23800;SDS011;12081;48.614;10.226;2022-11-15T02:01:28;19.30;;;13.30;;
23800;SDS011;12081;48.614;10.226;2022-11-15T02:04:18;18.43;;;12.37;;
23800;SDS011;12081;48.614;10.226;2022-11-15T02:07:12;18.20;;;12.93;;
23800;SDS011;12081;48.614;10.226;2022-11-15T02:10:02;15.90;;;12.27;;
23800;SDS011;12081;48.614;10.226;2022-11-15T02:12:51;17.07;;;11.30;;
23800;SDS011;12081;48.614;10.226;2022-11-15T02:15:38;14.63;;;10.70;;
23800;SDS011;12081;48.614;10.226;2022-11-15T02:18:34;16.43;;;11.30;;
23800;SDS011;12081;48.614;10.226;2022-11-15T02:40:23;12.73;;;9.97;;
23800;SDS011;12081;48.614;10.226;2022-11-15T02:43:25;16.17;;;9.90;;
23800;SDS011;12081;48.614;10.226;2022-11-15T02:49:49;12.10;;;10.07;;
23800;SDS011;12081;48.614;10.226;2022-11-15T02:52:35;14.97;;;10.13;;
23800;SDS011;12081;48.614;10.226;2022-11-15T02:55:30;12.83;;;10.40;;
23800;SDS011;12081;48.614;10.226;2022-11-15T03:11:10;13.90;;;10.50;;
23800;SDS011;12081;48.614;10.226;2022-11-15T03:16:51;14.77;;;11.40;;
23800;SDS011;12081;48.614;10.226;2022-11-15T03:19:58;14.57;;;11.33;;
23800;SDS011;12081;48.614;10.226;2022-11-15T03:22:45;16.00;;;11.97;;
23800;SDS011;12081;48.614;10.226;2022-11-15T03:25:32;16.07;;;11.93;;
23800;SDS011;12081;48.614;10.226;2022-11-15T03:28:22;18.33;;;12.13;;
23800;SDS011;12081;48.614;10.226;2022-11-15T03:31:12;17.43;;;12.47;;
23800;SDS011;12081;48.614;10.226;2022-11-15T03:34:26;18.13;;;12.53;;
23800;SDS011;12081;48.614;10.226;2022-11-15T03:37:15;15.97;;;11.57;;
23800;SDS011;12081;48.614;10.226;2022-11-15T03:40:01;20.17;;;12.33;;
23800;SDS011;12081;48.614;10.226;2022-11-15T03:46:17;18.47;;;11.13;;
23800;SDS011;12081;48.614;10.226;2022-11-15T03:49:24;14.83;;;10.33;;
23800;SDS011;12081;48.614;10.226;2022-11-15T03:52:12;14.23;;;10.57;;
23800;SDS011;12081;48.614;10.226;2022-11-15T03:54:56;17.67;;;11.20;;
23800;SDS011;12081;48.614;10.226;2022-11-15T03:57:43;12.80;;;10.30;;
23800;SDS011;12081;48.614;10.226;2022-11-15T04:00:28;17.93;;;13.03;;
23800;SDS011;12081;48.614;10.226;2022-11-15T04:03:13;15.93;;;11.27;;
23800;SDS011;12081;48.614;10.226;2022-11-15T04:05:57;15.90;;;10.87;;
23800;SDS011;12081;48.614;10.226;2022-11-15T04:08:41;21.90;;;12.43;;
23800;SDS011;12081;48.614;10.226;2022-11-15T04:11:26;16.23;;;11.33;;
23800;SDS011;12081;48.614;10.226;2022-11-15T04:14:10;13.53;;;11.07;;
23800;SDS011;12081;48.614;10.226;2022-11-15T04:16:54;15.20;;;11.27;;
23800;SDS011;12081;48.614;10.226;2022-11-15T04:19:38;15.43;;;11.83;;
23800;SDS011;12081;48.614;10.226;2022-11-15T04:22:41;16.27;;;12.07;;
23800;SDS011;12081;48.614;10.226;2022-11-15T04:25:44;15.77;;;11.33;;
23800;SDS011;12081;48.614;10.226;2022-11-15T04:28:29;18.50;;;11.17;;
23800;SDS011;12081;48.614;10.226;2022-11-15T04:31:13;14.60;;;11.50;;
23800;SDS011;12081;48.614;10.226;2022-11-15T04:33:57;14.63;;;10.70;;
23800;SDS011;12081;48.614;10.226;2022-11-15T04:36:42;15.47;;;11.57;;
23800;SDS011;12081;48.614;10.226;2022-11-15T04:39:45;17.90;;;11.97;;
23800;SDS011;12081;48.614;10.226;2022-11-15T04:42:29;16.53;;;11.47;;
23800;SDS011;12081;48.614;10.226;2022-11-15T04:45:13;17.80;;;11.73;;
23800;SDS011;12081;48.614;10.226;2022-11-15T04:47:58;14.60;;;10.73;;
23800;SDS011;12081;48.614;10.226;2022-11-15T04:50:42;17.50;;;11.23;;
23800;SDS011;12081;48.614;10.226;2022-11-15T04:53:26;14.57;;;11.17;;
23800;SDS011;12081;48.614;10.226;2022-11-15T04:56:10;17.70;;;12.23;;
23800;SDS011;12081;48.614;10.226;2022-11-15T04:58:55;16.93;;;12.70;;
23800;SDS011;12081;48.614;10.226;2022-11-15T05:01:39;14.10;;;10.83;;
23800;SDS011;12081;48.614;10.226;2022-11-15T05:04:23;15.67;;;11.67;;
23800;SDS011;12081;48.614;10.226;2022-11-15T05:07:07;17.17;;;12.33;;
23800;SDS011;12081;48.614;10.226;2022-11-15T05:09:51;16.00;;;12.67;;
23800;SDS011;12081;48.614;10.226;2022-11-15T05:12:53;19.27;;;12.50;;
23800;SDS011;12081;48.614;10.226;2022-11-15T05:20:46;21.13;;;15.50;;
23800;SDS011;12081;48.614;10.226;2022-11-15T05:23:30;23.13;;;15.60;;
23800;SDS011;12081;48.614;10.226;2022-11-15T05:26:15;19.40;;;14.03;;
23800;SDS011;12081;48.614;10.226;2022-11-15T05:29:01;24.47;;;16.47;;
23800;SDS011;12081;48.614;10.226;2022-11-15T05:31:46;21.83;;;14.40;;
23800;SDS011;12081;48.614;10.226;2022-11-15T05:34:30;23.83;;;15.43;;
23800;SDS011;12081;48.614;10.226;2022-11-15T05:37:15;19.63;;;14.27;;
23800;SDS011;12081;48.614;10.226;2022-11-15T05:42:34;21.20;;;13.93;;
23800;SDS011;12081;48.614;10.226;2022-11-15T05:45:18;17.03;;;13.30;;
23800;SDS011;12081;48.614;10.226;2022-11-15T05:48:06;19.07;;;13.90;;
23800;SDS011;12081;48.614;10.226;2022-11-15T05:50:53;21.17;;;13.63;;
23800;SDS011;12081;48.614;10.226;2022-11-15T05:53:38;20.00;;;13.97;;
23800;SDS011;12081;48.614;10.226;2022-11-15T05:56:23;18.23;;;12.03;;
23800;SDS011;12081;48.614;10.226;2022-11-15T05:59:17;18.30;;;12.27;;
23800;SDS011;12081;48.614;10.226;2022-11-15T06:02:02;18.53;;;13.43;;
23800;SDS011;12081;48.614;10.226;2022-11-15T06:04:46;16.50;;;12.70;;
23800;SDS011;12081;48.614;10.226;2022-11-15T06:07:30;19.37;;;12.27;;
23800;SDS011;12081;48.614;10.226;2022-11-15T06:10:15;18.83;;;12.70;;
23800;SDS011;12081;48.614;10.226;2022-11-15T06:13:01;18.80;;;12.63;;
23800;SDS011;12081;48.614;10.226;2022-11-15T06:15:46;16.50;;;12.40;;
23800;SDS011;12081;48.614;10.226;2022-11-15T06:18:34;17.13;;;12.17;;
23800;SDS011;12081;48.614;10.226;2022-11-15T06:21:18;15.37;;;12.70;;
23800;SDS011;12081;48.614;10.226;2022-11-15T06:24:03;19.53;;;12.13;;
23800;SDS011;12081;48.614;10.226;2022-11-15T06:26:48;15.00;;;12.30;;
23800;SDS011;12081;48.614;10.226;2022-11-15T06:29:33;14.20;;;11.63;;
23800;SDS011;12081;48.614;10.226;2022-11-15T06:32:18;14.90;;;12.93;;
23800;SDS011;12081;48.614;10.226;2022-11-15T06:35:02;16.87;;;11.90;;
23800;SDS011;12081;48.614;10.226;2022-11-15T06:37:47;16.67;;;13.27;;
23800;SDS011;12081;48.614;10.226;2022-11-15T06:40:32;17.33;;;13.57;;
23800;SDS011;12081;48.614;10.226;2022-11-15T06:43:18;20.13;;;12.47;;
23800;SDS011;12081;48.614;10.226;2022-11-15T06:46:03;15.97;;;12.43;;
23800;SDS011;12081;48.614;10.226;2022-11-15T06:48:50;21.20;;;12.93;;
23800;SDS011;12081;48.614;10.226;2022-11-15T06:51:35;18.03;;;13.90;;
23800;SDS011;12081;48.614;10.226;2022-11-15T06:54:19;26.97;;;17.33;;
23800;SDS011;12081;48.614;10.226;2022-11-15T06:57:05;20.77;;;14.73;;
23800;SDS011;12081;48.614;10.226;2022-11-15T06:59:49;17.40;;;13.20;;
23800;SDS011;12081;48.614;10.226;2022-11-15T07:02:33;16.63;;;13.50;;
23800;SDS011;12081;48.614;10.226;2022-11-15T07:05:17;20.27;;;13.90;;
23800;SDS011;12081;48.614;10.226;2022-11-15T07:08:01;16.53;;;11.77;;
23800;SDS011;12081;48.614;10.226;2022-11-15T07:10:46;14.67;;;10.90;;
23800;SDS011;12081;48.614;10.226;2022-11-15T07:13:30;14.77;;;8.97;;
23800;SDS011;12081;48.614;10.226;2022-11-15T07:16:19;12.63;;;9.13;;
23800;SDS011;12081;48.614;10.226;2022-11-15T07:19:03;10.00;;;7.13;;
23800;SDS011;12081;48.614;10.226;2022-11-15T07:21:47;11.53;;;7.20;;
23800;SDS011;12081;48.614;10.226;2022-11-15T07:24:31;7.87;;;6.70;;
23800;SDS011;12081;48.614;10.226;2022-11-15T07:27:16;8.33;;;6.50;;
23800;SDS011;12081;48.614;10.226;2022-11-15T07:30:00;9.17;;;6.70;;
23800;SDS011;12081;48.614;10.226;2022-11-15T07:32:45;6.67;;;5.97;;
23800;SDS011;12081;48.614;10.226;2022-11-15T07:35:30;7.70;;;5.60;;
23800;SDS011;12081;48.614;10.226;2022-11-15T07:40:42;6.60;;;5.80;;
23800;SDS011;12081;48.614;10.226;2022-11-15T07:43:27;7.40;;;5.57;;
23800;SDS011;12081;48.614;10.226;2022-11-15T07:46:12;6.77;;;5.83;;
23800;SDS011;12081;48.614;10.226;2022-11-15T07:48:56;7.60;;;6.80;;
23800;SDS011;12081;48.614;10.226;2022-11-15T07:51:41;8.40;;;5.93;;
23800;SDS011;12081;48.614;10.226;2022-11-15T07:54:25;7.13;;;6.43;;
23800;SDS011;12081;48.614;10.226;2022-11-15T07:57:09;7.77;;;6.57;;
23800;SDS011;12081;48.614;10.226;2022-11-15T07:59:53;6.32;;;5.72;;
23800;SDS011;12081;48.614;10.226;2022-11-15T08:02:38;7.47;;;6.37;;
23800;SDS011;12081;48.614;10.226;2022-11-15T08:05:22;7.22;;;6.03;;
23800;SDS011;12081;48.614;10.226;2022-11-15T08:08:06;6.30;;;5.57;;
23800;SDS011;12081;48.614;10.226;2022-11-15T08:10:52;8.45;;;6.43;;
23800;SDS011;12081;48.614;10.226;2022-11-15T08:13:38;9.13;;;5.53;;
23800;SDS011;12081;48.614;10.226;2022-11-15T08:16:22;6.72;;;6.05;;
23800;SDS011;12081;48.614;10.226;2022-11-15T08:19:06;9.30;;;5.60;;
23800;SDS011;12081;48.614;10.226;2022-11-15T08:21:50;6.47;;;4.97;;
23800;SDS011;12081;48.614;10.226;2022-11-15T08:24:34;6.50;;;5.17;;
23800;SDS011;12081;48.614;10.226;2022-11-15T08:27:18;5.73;;;5.20;;
23800;SDS011;12081;48.614;10.226;2022-11-15T08:30:02;6.40;;;5.10;;
23800;SDS011;12081;48.614;10.226;2022-11-15T08:32:47;7.17;;;5.60;;
23800;SDS011;12081;48.614;10.226;2022-11-15T08:35:31;6.10;;;5.23;;
23800;SDS011;12081;48.614;10.226;2022-11-15T08:38:15;5.63;;;4.97;;
23800;SDS011;12081;48.614;10.226;2022-11-15T08:41:01;6.47;;;4.97;;
23800;SDS011;12081;48.614;10.226;2022-11-15T08:43:46;5.73;;;5.13;;
23800;SDS011;12081;48.614;10.226;2022-11-15T08:46:30;6.07;;;4.70;;
23800;SDS011;12081;48.614;10.226;2022-11-15T08:49:14;6.20;;;5.60;;
23800;SDS011;12081;48.614;10.226;2022-11-15T08:51:58;6.77;;;5.20;;
23800;SDS011;12081;48.614;10.226;2022-11-15T08:54:42;5.37;;;4.90;;
23800;SDS011;12081;48.614;10.226;2022-11-15T08:57:28;6.60;;;5.20;;
23800;SDS011;12081;48.614;10.226;2022-11-15T09:00:14;6.67;;;5.10;;
23800;SDS011;12081;48.614;10.226;2022-11-15T09:02:58;5.57;;;4.83;;
23800;SDS011;12081;48.614;10.226;2022-11-15T09:05:43;6.03;;;5.43;;
23800;SDS011;12081;48.614;10.226;2022-11-15T09:08:29;6.30;;;5.70;;
23800;SDS011;12081;48.614;10.226;2022-11-15T09:11:14;5.80;;;5.23;;
23800;SDS011;12081;48.614;10.226;2022-11-15T09:14:01;5.53;;;5.00;;
23800;SDS011;12081;48.614;10.226;2022-11-15T09:16:47;6.53;;;5.82;;
23800;SDS011;12081;48.614;10.226;2022-11-15T09:19:31;6.00;;;5.50;;
23800;SDS011;12081;48.614;10.226;2022-11-15T09:22:16;7.70;;;6.97;;
23800;SDS011;12081;48.614;10.226;2022-11-15T09:25:00;7.55;;;6.80;;
23800;SDS011;12081;48.614;10.226;2022-11-15T09:27:44;32.70;;;27.70;;
23800;SDS011;12081;48.614;10.226;2022-11-15T09:30:29;6.55;;;5.88;;
23800;SDS011;12081;48.614;10.226;2022-11-15T09:33:13;6.93;;;6.32;;
23800;SDS011;12081;48.614;10.226;2022-11-15T09:36:02;16.13;;;11.85;;
23800;SDS011;12081;48.614;10.226;2022-11-15T09:38:48;6.75;;;6.15;;
23800;SDS011;12081;48.614;10.226;2022-11-15T09:41:48;6.30;;;5.35;;
23800;SDS011;12081;48.614;10.226;2022-11-15T09:44:41;6.35;;;5.78;;
23800;SDS011;12081;48.614;10.226;2022-11-15T09:47:51;5.68;;;5.07;;
23800;SDS011;12081;48.614;10.226;2022-11-15T09:50:43;6.20;;;5.47;;
23800;SDS011;12081;48.614;10.226;2022-11-15T09:53:40;6.20;;;5.60;;
23800;SDS011;12081;48.614;10.226;2022-11-15T09:56:33;6.47;;;5.57;;
23800;SDS011;12081;48.614;10.226;2022-11-15T11:15:11;5.23;;;3.93;;
23800;SDS011;12081;48.614;10.226;2022-11-15T11:18:03;5.67;;;4.07;;
23800;SDS011;12081;48.614;10.226;2022-11-15T11:21:00;4.37;;;3.67;;
23800;SDS011;12081;48.614;10.226;2022-11-15T11:24:00;4.70;;;4.10;;
23800;SDS011;12081;48.614;10.226;2022-11-15T11:27:08;5.43;;;4.17;;
23800;SDS011;12081;48.614;10.226;2022-11-15T11:33:17;4.57;;;3.87;;
23800;SDS011;12081;48.614;10.226;2022-11-15T11:36:19;4.13;;;3.70;;
23800;SDS011;12081;48.614;10.226;2022-11-15T11:39:17;4.82;;;4.00;;
23800;SDS011;12081;48.614;10.226;2022-11-15T11:42:40;4.53;;;4.13;;
23800;SDS011;12081;48.614;10.226;2022-11-15T11:51:28;4.60;;;4.20;;
23800;SDS011;12081;48.614;10.226;2022-11-15T12:01:04;3.38;;;3.05;;
23800;SDS011;12081;48.614;10.226;2022-11-15T12:07:24;3.53;;;3.20;;
23800;SDS011;12081;48.614;10.226;2022-11-15T12:10:19;3.63;;;3.33;;
23800;SDS011;12081;48.614;10.226;2022-11-15T12:13:09;5.60;;;2.80;;
23800;SDS011;12081;48.614;10.226;2022-11-15T12:16:08;3.17;;;2.90;;
23800;SDS011;12081;48.614;10.226;2022-11-15T12:19:02;3.20;;;2.90;;
23800;SDS011;12081;48.614;10.226;2022-11-15T12:21:50;3.28;;;2.97;;
23800;SDS011;12081;48.614;10.226;2022-11-15T12:25:03;3.05;;;2.53;;
23800;SDS011;12081;48.614;10.226;2022-11-15T12:37:32;2.80;;;2.50;;
23800;SDS011;12081;48.614;10.226;2022-11-15T12:40:27;3.27;;;2.90;;
23800;SDS011;12081;48.614;10.226;2022-11-15T12:52:12;3.60;;;3.10;;
23800;SDS011;12081;48.614;10.226;2022-11-15T12:54:58;3.70;;;2.83;;
23800;SDS011;12081;48.614;10.226;2022-11-15T13:15:58;3.40;;;3.10;;
23800;SDS011;12081;48.614;10.226;2022-11-15T13:18:43;4.10;;;3.47;;
23800;SDS011;12081;48.614;10.226;2022-11-15T13:21:39;3.83;;;3.23;;
23800;SDS011;12081;48.614;10.226;2022-11-15T13:24:52;5.93;;;3.93;;
23800;SDS011;12081;48.614;10.226;2022-11-15T13:27:36;5.20;;;3.80;;
23800;SDS011;12081;48.614;10.226;2022-11-15T13:30:21;6.47;;;3.93;;
23800;SDS011;12081;48.614;10.226;2022-11-15T13:33:17;6.60;;;4.40;;
23800;SDS011;12081;48.614;10.226;2022-11-15T13:36:26;6.03;;;4.90;;
23800;SDS011;12081;48.614;10.226;2022-11-15T13:57:59;6.90;;;5.40;;
23800;SDS011;12081;48.614;10.226;2022-11-15T14:00:49;6.37;;;5.40;;
23800;SDS011;12081;48.614;10.226;2022-11-15T14:03:55;5.57;;;5.07;;
23800;SDS011;12081;48.614;10.226;2022-11-15T14:06:46;5.60;;;4.77;;
23800;SDS011;12081;48.614;10.226;2022-11-15T14:09:37;6.73;;;4.70;;
23800;SDS011;12081;48.614;10.226;2022-11-15T14:12:28;7.07;;;5.47;;
23800;SDS011;12081;48.614;10.226;2022-11-15T14:25:13;5.67;;;5.00;;
23800;SDS011;12081;48.614;10.226;2022-11-15T14:31:11;6.20;;;5.57;;
23800;SDS011;12081;48.614;10.226;2022-11-15T14:33:58;5.33;;;4.73;;
23800;SDS011;12081;48.614;10.226;2022-11-15T14:36:43;6.67;;;5.33;;
23800;SDS011;12081;48.614;10.226;2022-11-15T14:39:28;5.77;;;4.83;;
23800;SDS011;12081;48.614;10.226;2022-11-15T14:42:12;7.17;;;5.40;;
23800;SDS011;12081;48.614;10.226;2022-11-15T14:44:57;5.70;;;5.13;;
23800;SDS011;12081;48.614;10.226;2022-11-15T14:47:42;6.63;;;5.93;;
23800;SDS011;12081;48.614;10.226;2022-11-15T14:50:27;7.30;;;6.47;;
23800;SDS011;12081;48.614;10.226;2022-11-15T14:53:12;9.37;;;7.27;;
23800;SDS011;12081;48.614;10.226;2022-11-15T14:56:01;8.07;;;7.17;;
23800;SDS011;12081;48.614;10.226;2022-11-15T14:58:46;8.17;;;7.20;;
23800;SDS011;12081;48.614;10.226;2022-11-15T15:01:31;8.17;;;6.90;;
23800;SDS011;12081;48.614;10.226;2022-11-15T15:04:16;8.10;;;7.03;;
23800;SDS011;12081;48.614;10.226;2022-11-15T15:07:00;7.87;;;7.07;;
23800;SDS011;12081;48.614;10.226;2022-11-15T15:09:45;8.33;;;7.30;;
23800;SDS011;12081;48.614;10.226;2022-11-15T15:12:30;7.67;;;6.83;;
23800;SDS011;12081;48.614;10.226;2022-11-15T15:15:16;6.70;;;6.03;;
23800;SDS011;12081;48.614;10.226;2022-11-15T15:18:05;9.53;;;7.03;;
23800;SDS011;12081;48.614;10.226;2022-11-15T15:20:54;7.80;;;6.60;;
23800;SDS011;12081;48.614;10.226;2022-11-15T15:23:43;8.50;;;7.40;;
23800;SDS011;12081;48.614;10.226;2022-11-15T15:26:27;7.80;;;6.90;;
23800;SDS011;12081;48.614;10.226;2022-11-15T15:29:12;8.63;;;7.17;;
23800;SDS011;12081;48.614;10.226;2022-11-15T15:31:57;11.83;;;7.33;;
23800;SDS011;12081;48.614;10.226;2022-11-15T15:34:42;8.93;;;6.57;;
23800;SDS011;12081;48.614;10.226;2022-11-15T15:37:26;9.07;;;7.90;;
23800;SDS011;12081;48.614;10.226;2022-11-15T15:40:13;12.93;;;8.57;;
23800;SDS011;12081;48.614;10.226;2022-11-15T15:43:00;7.80;;;6.37;;
23800;SDS011;12081;48.614;10.226;2022-11-15T15:45:44;7.80;;;6.83;;
23800;SDS011;12081;48.614;10.226;2022-11-15T15:48:29;8.17;;;6.87;;
23800;SDS011;12081;48.614;10.226;2022-11-15T15:51:13;8.07;;;6.97;;
23800;SDS011;12081;48.614;10.226;2022-11-15T15:53:58;8.23;;;6.67;;
23800;SDS011;12081;48.614;10.226;2022-11-15T15:56:42;9.40;;;7.20;;
23800;SDS011;12081;48.614;10.226;2022-11-15T15:59:26;7.30;;;6.50;;
23800;SDS011;12081;48.614;10.226;2022-11-15T16:02:13;10.03;;;6.87;;
23800;SDS011;12081;48.614;10.226;2022-11-15T16:04:58;10.57;;;7.70;;
23800;SDS011;12081;48.614;10.226;2022-11-15T16:07:42;8.53;;;7.60;;
23800;SDS011;12081;48.614;10.226;2022-11-15T16:10:28;11.50;;;10.30;;
23800;SDS011;12081;48.614;10.226;2022-11-15T16:13:15;18.17;;;14.03;;
23800;SDS011;12081;48.614;10.226;2022-11-15T16:16:01;15.70;;;11.70;;
23800;SDS011;12081;48.614;10.226;2022-11-15T16:18:46;15.03;;;10.80;;
23800;SDS011;12081;48.614;10.226;2022-11-15T16:21:30;19.77;;;14.93;;
23800;SDS011;12081;48.614;10.226;2022-11-15T16:24:15;13.43;;;11.07;;
23800;SDS011;12081;48.614;10.226;2022-11-15T16:26:59;12.97;;;9.40;;
23800;SDS011;12081;48.614;10.226;2022-11-15T16:29:44;12.17;;;9.90;;
23800;SDS011;12081;48.614;10.226;2022-11-15T16:32:29;12.50;;;9.20;;
23800;SDS011;12081;48.614;10.226;2022-11-15T16:35:14;12.07;;;9.57;;
23800;SDS011;12081;48.614;10.226;2022-11-15T16:37:59;12.37;;;9.13;;
23800;SDS011;12081;48.614;10.226;2022-11-15T16:40:44;11.57;;;9.43;;
23800;SDS011;12081;48.614;10.226;2022-11-15T16:43:29;14.07;;;10.20;;
23800;SDS011;12081;48.614;10.226;2022-11-15T16:46:16;13.87;;;10.43;;
23800;SDS011;12081;48.614;10.226;2022-11-15T16:49:12;13.13;;;9.93;;
23800;SDS011;12081;48.614;10.226;2022-11-15T16:51:57;18.07;;;12.10;;
23800;SDS011;12081;48.614;10.226;2022-11-15T16:54:42;17.07;;;11.23;;
23800;SDS011;12081;48.614;10.226;2022-11-15T16:57:27;13.27;;;9.83;;
23800;SDS011;12081;48.614;10.226;2022-11-15T17:00:11;19.93;;;13.40;;
23800;SDS011;12081;48.614;10.226;2022-11-15T17:02:59;17.53;;;14.17;;
23800;SDS011;12081;48.614;10.226;2022-11-15T17:05:43;15.53;;;12.20;;
23800;SDS011;12081;48.614;10.226;2022-11-15T17:08:28;13.07;;;10.23;;
23800;SDS011;12081;48.614;10.226;2022-11-15T17:11:13;14.33;;;10.13;;
23800;SDS011;12081;48.614;10.226;2022-11-15T17:17:41;16.37;;;10.27;;
23800;SDS011;12081;48.614;10.226;2022-11-15T17:20:26;13.60;;;9.97;;
23800;SDS011;12081;48.614;10.226;2022-11-15T17:23:11;15.57;;;9.93;;
23800;SDS011;12081;48.614;10.226;2022-11-15T17:25:57;12.20;;;9.13;;
23800;SDS011;12081;48.614;10.226;2022-11-15T17:28:48;12.53;;;10.20;;
23800;SDS011;12081;48.614;10.226;2022-11-15T17:31:37;15.57;;;11.70;;
23800;SDS011;12081;48.614;10.226;2022-11-15T17:34:21;15.37;;;10.33;;
23800;SDS011;12081;48.614;10.226;2022-11-15T17:37:06;13.07;;;9.40;;
23800;SDS011;12081;48.614;10.226;2022-11-15T17:39:50;14.37;;;11.20;;
23800;SDS011;12081;48.614;10.226;2022-11-15T17:42:35;15.70;;;11.50;;
23800;SDS011;12081;48.614;10.226;2022-11-15T17:45:20;19.33;;;14.77;;
23800;SDS011;12081;48.614;10.226;2022-11-15T17:48:04;27.43;;;19.97;;
23800;SDS011;12081;48.614;10.226;2022-11-15T17:50:56;31.47;;;23.47;;
23800;SDS011;12081;48.614;10.226;2022-11-15T17:57:24;13.60;;;9.53;;
23800;SDS011;12081;48.614;10.226;2022-11-15T18:00:09;12.97;;;10.97;;
23800;SDS011;12081;48.614;10.226;2022-11-15T18:02:55;16.63;;;12.63;;
23800;SDS011;12081;48.614;10.226;2022-11-15T18:05:40;19.73;;;13.73;;
23800;SDS011;12081;48.614;10.226;2022-11-15T18:08:28;17.47;;;13.17;;
23800;SDS011;12081;48.614;10.226;2022-11-15T18:11:17;15.67;;;12.83;;
23800;SDS011;12081;48.614;10.226;2022-11-15T18:14:12;16.40;;;12.00;;
23800;SDS011;12081;48.614;10.226;2022-11-15T18:16:57;17.53;;;11.47;;
23800;SDS011;12081;48.614;10.226;2022-11-15T18:19:42;12.53;;;10.47;;
23800;SDS011;12081;48.614;10.226;2022-11-15T18:22:27;12.83;;;10.93;;
23800;SDS011;12081;48.614;10.226;2022-11-15T18:25:11;114.13;;;46.33;;
23800;SDS011;12081;48.614;10.226;2022-11-15T18:27:58;61.03;;;27.77;;
23800;SDS011;12081;48.614;10.226;2022-11-15T18:30:43;17.87;;;12.07;;
23800;SDS011;12081;48.614;10.226;2022-11-15T18:33:28;17.50;;;11.00;;
23800;SDS011;12081;48.614;10.226;2022-11-15T18:36:18;15.47;;;9.53;;
23800;SDS011;12081;48.614;10.226;2022-11-15T18:39:05;12.47;;;9.87;;
23800;SDS011;12081;48.614;10.226;2022-11-15T18:41:50;17.83;;;14.47;;
23800;SDS011;12081;48.614;10.226;2022-11-15T18:44:34;33.67;;;21.37;;
23800;SDS011;12081;48.614;10.226;2022-11-15T18:47:19;28.43;;;19.63;;
23800;SDS011;12081;48.614;10.226;2022-11-15T18:50:03;75.30;;;36.80;;
23800;SDS011;12081;48.614;10.226;2022-11-15T18:52:48;114.83;;;58.03;;
23800;SDS011;12081;48.614;10.226;2022-11-15T18:55:33;205.20;;;103.77;;
23800;SDS011;12081;48.614;10.226;2022-11-15T18:58:17;83.53;;;47.73;;
23800;SDS011;12081;48.614;10.226;2022-11-15T19:01:12;34.07;;;22.43;;
23800;SDS011;12081;48.614;10.226;2022-11-15T19:03:58;18.97;;;15.37;;
23800;SDS011;12081;48.614;10.226;2022-11-15T19:06:47;16.30;;;14.30;;
23800;SDS011;12081;48.614;10.226;2022-11-15T19:09:33;14.23;;;11.93;;
23800;SDS011;12081;48.614;10.226;2022-11-15T19:12:18;14.43;;;12.90;;
23800;SDS011;12081;48.614;10.226;2022-11-15T19:15:02;15.17;;;10.60;;
23800;SDS011;12081;48.614;10.226;2022-11-15T19:17:47;10.67;;;9.47;;
23800;SDS011;12081;48.614;10.226;2022-11-15T19:20:34;11.50;;;10.13;;
23800;SDS011;12081;48.614;10.226;2022-11-15T19:23:18;11.83;;;9.70;;
23800;SDS011;12081;48.614;10.226;2022-11-15T19:26:05;15.53;;;10.23;;
23800;SDS011;12081;48.614;10.226;2022-11-15T19:28:54;16.97;;;12.80;;
23800;SDS011;12081;48.614;10.226;2022-11-15T19:31:43;22.43;;;16.67;;
23800;SDS011;12081;48.614;10.226;2022-11-15T19:34:27;37.80;;;24.17;;
23800;SDS011;12081;48.614;10.226;2022-11-15T19:37:12;29.53;;;20.57;;
23800;SDS011;12081;48.614;10.226;2022-11-15T19:39:56;22.30;;;15.40;;
23800;SDS011;12081;48.614;10.226;2022-11-15T19:42:41;24.17;;;16.00;;
23800;SDS011;12081;48.614;10.226;2022-11-15T19:45:25;33.27;;;19.63;;
23800;SDS011;12081;48.614;10.226;2022-11-15T19:48:10;22.10;;;14.70;;
23800;SDS011;12081;48.614;10.226;2022-11-15T19:54:35;16.93;;;13.47;;
23800;SDS011;12081;48.614;10.226;2022-11-15T19:57:19;18.03;;;14.13;;
23800;SDS011;12081;48.614;10.226;2022-11-15T20:00:04;20.20;;;14.40;;